Time;durP1;ratioP1;P1;durP2;ratioP2;P2;SDS_P1;SDS_P2;PMS_P1;PMS_P2;Temp;Humidity;BMP_temperature;BMP_pressure;BME280_temperature;BME280_humidity;BME280_pressure;Samples;Min_cycle;Max_cycle;Signal;HPM_P1;HPM_P2
2023/05/18 00:00:04;;;;;;;;;;;20.20;57.10;;;;;;6344754;28;19981;-71
2023/05/18 00:03:05;;;;;;;;;;;20.10;57.10;;;;;;6344772;28;19999;-72
2023/05/18 00:06:06;;;;;;;;;;;20.10;57.10;;;;;;6344238;28;19915;-72
2023/05/18 00:09:06;;;;;;;;;;;20.10;57.10;;;;;;6345147;28;19943;-71
2023/05/18 00:12:08;;;;;;;;;;;20.10;57.10;;;;;;6344437;28;19914;-71
2023/05/18 00:15:09;;;;;;;;;;;20.10;57.10;;;;;;6343638;28;20293;-71
2023/05/18 00:18:09;;;;;;;;;;;20.10;57.10;;;;;;6343943;28;19908;-71
2023/05/18 00:21:10;;;;;;;;;;;20.10;57.10;;;;;;6343732;28;20007;-71
2023/05/18 00:24:11;;;;;;;;;;;20.10;57.10;;;;;;6343499;28;19912;-71
2023/05/18 00:27:12;;;;;;;;;;;20.10;57.10;;;;;;6345222;28;20429;-71
2023/05/18 00:30:12;;;;;;;;;;;20.10;57.10;;;;;;6344258;28;19908;-71
2023/05/18 00:33:13;;;;;;;;;;;20.10;57.10;;;;;;6345054;28;19916;-71
2023/05/18 00:36:13;;;;;;;;;;;20.10;57.10;;;;;;6344203;28;19907;-71
2023/05/18 00:39:14;;;;;;;;;;;20.10;57.10;;;;;;6344284;28;20342;-71
2023/05/18 00:42:14;;;;;;;;;;;20.10;57.10;;;;;;6342450;28;19920;-72
2023/05/18 00:45:15;;;;;;;;;;;20.10;57.10;;;;;;6344103;28;20412;-71
2023/05/18 00:48:15;;;;;;;;;;;20.10;57.10;;;;;;6344981;28;19908;-71
2023/05/18 00:51:22;;;;;;;;;;;20.10;57.10;;;;;;6343383;28;19956;-71
2023/05/18 00:54:22;;;;;;;;;;;20.10;57.10;;;;;;6343011;28;20293;-71
2023/05/18 00:57:25;;;;;;;;;;;20.10;57.10;;;;;;6337818;28;20135;-71
2023/05/18 01:00:27;;;;;;;;;;;20.10;57.10;;;;;;6343402;28;20006;-72
2023/05/18 01:03:29;;;;;;;;;;;20.10;57.10;;;;;;6344051;28;19930;-71
2023/05/18 01:06:34;;;;;;;;;;;20.10;57.10;;;;;;6344417;28;19908;-71
2023/05/18 01:09:34;;;;;;;;;;;20.10;57.20;;;;;;6344136;28;19915;-71
2023/05/18 01:12:39;;;;;;;;;;;20.10;57.10;;;;;;6343372;28;19912;-72
2023/05/18 01:15:40;;;;;;;;;;;20.10;57.20;;;;;;6343153;28;19956;-71
2023/05/18 01:18:46;;;;;;;;;;;20.10;57.10;;;;;;6343159;28;19908;-71
2023/05/18 01:22:03;;;;;;;;;;;20.10;57.10;;;;;;6343164;28;19915;-71
2023/05/18 01:25:18;;;;;;;;;;;20.10;57.10;;;;;;6342291;28;19935;-71
2023/05/18 01:28:19;;;;;;;;;;;20.10;57.10;;;;;;6339647;28;19908;-71
2023/05/18 01:31:20;;;;;;;;;;;20.10;57.10;;;;;;6342875;28;19960;-71
2023/05/18 01:34:20;;;;;;;;;;;20.10;57.20;;;;;;6343061;28;19919;-71
2023/05/18 01:37:21;;;;;;;;;;;20.10;57.10;;;;;;6342750;28;19912;-72
2023/05/18 01:40:22;;;;;;;;;;;20.10;57.20;;;;;;6342885;28;19991;-72
2023/05/18 01:43:26;;;;;;;;;;;20.10;57.20;;;;;;6343749;28;19912;-71
2023/05/18 01:46:33;;;;;;;;;;;20.10;57.10;;;;;;6343379;28;20534;-71
2023/05/18 01:49:40;;;;;;;;;;;20.10;57.20;;;;;;6343988;28;19915;-72
2023/05/18 01:52:46;;;;;;;;;;;20.10;57.10;;;;;;6343498;28;19920;-72
2023/05/18 01:55:47;;;;;;;;;;;20.10;57.10;;;;;;6345016;28;19911;-71
2023/05/18 01:58:48;;;;;;;;;;;20.10;57.20;;;;;;6348696;28;19919;-71
2023/05/18 02:01:49;;;;;;;;;;;20.10;57.20;;;;;;6347333;28;20401;-71
2023/05/18 02:04:50;;;;;;;;;;;20.10;57.20;;;;;;6347083;28;19915;-72
2023/05/18 02:07:50;;;;;;;;;;;20.10;57.20;;;;;;6347407;28;19914;-71
2023/05/18 02:10:51;;;;;;;;;;;20.10;57.20;;;;;;6346854;28;19915;-71
2023/05/18 02:13:51;;;;;;;;;;;20.10;57.20;;;;;;6347116;28;20507;-72
2023/05/18 02:16:52;;;;;;;;;;;20.10;57.20;;;;;;6347195;28;19937;-71
2023/05/18 02:19:52;;;;;;;;;;;20.10;57.20;;;;;;6348137;28;20321;-71
2023/05/18 02:22:53;;;;;;;;;;;20.10;57.20;;;;;;6347817;28;19908;-72
2023/05/18 02:25:56;;;;;;;;;;;20.10;57.20;;;;;;6347774;28;19908;-71
2023/05/18 02:28:57;;;;;;;;;;;20.10;57.20;;;;;;6347598;28;20397;-71
2023/05/18 02:31:57;;;;;;;;;;;20.10;57.20;;;;;;6347763;28;19993;-72
2023/05/18 02:35:01;;;;;;;;;;;20.10;57.20;;;;;;6347154;28;19980;-71
2023/05/18 02:38:01;;;;;;;;;;;20.10;57.20;;;;;;6347572;28;19911;-71
2023/05/18 02:41:02;;;;;;;;;;;20.10;57.10;;;;;;6347383;28;20488;-71
2023/05/18 02:44:03;;;;;;;;;;;20.10;57.20;;;;;;6347366;28;19919;-72
2023/05/18 02:47:03;;;;;;;;;;;20.10;57.20;;;;;;6347541;28;19907;-71
2023/05/18 02:50:04;;;;;;;;;;;20.10;57.20;;;;;;6346963;28;19912;-72
2023/05/18 02:53:05;;;;;;;;;;;20.10;57.10;;;;;;6346578;28;20011;-71
2023/05/18 02:56:05;;;;;;;;;;;20.10;57.10;;;;;;6328608;28;19959;-71
2023/05/18 02:59:06;;;;;;;;;;;20.10;57.10;;;;;;6347056;28;19915;-71
2023/05/18 03:02:07;;;;;;;;;;;20.10;57.10;;;;;;6346207;28;19909;-71
2023/05/18 03:05:08;;;;;;;;;;;20.10;57.20;;;;;;6345738;28;19927;-72
2023/05/18 03:08:09;;;;;;;;;;;20.10;57.20;;;;;;6346122;28;19955;-71
2023/05/18 03:11:09;;;;;;;;;;;20.10;57.20;;;;;;6346861;28;19907;-71
2023/05/18 03:14:10;;;;;;;;;;;20.10;57.20;;;;;;6346861;28;19954;-71
2023/05/18 03:17:10;;;;;;;;;;;20.10;57.20;;;;;;6346769;28;19961;-72
2023/05/18 03:20:13;;;;;;;;;;;20.10;57.20;;;;;;6346631;28;19914;-71
2023/05/18 03:23:13;;;;;;;;;;;20.10;57.20;;;;;;6346388;28;19935;-71
2023/05/18 03:26:15;;;;;;;;;;;20.10;57.10;;;;;;6346160;28;19908;-71
2023/05/18 03:29:16;;;;;;;;;;;20.10;57.10;;;;;;6346122;28;19958;-71
2023/05/18 03:32:17;;;;;;;;;;;20.10;57.10;;;;;;6346111;28;19907;-71
2023/05/18 03:35:17;;;;;;;;;;;20.10;57.20;;;;;;6346307;28;19919;-71
2023/05/18 03:38:18;;;;;;;;;;;20.10;57.20;;;;;;6345976;28;19912;-71
2023/05/18 03:41:18;;;;;;;;;;;20.10;57.20;;;;;;6346115;28;19907;-72
2023/05/18 03:44:21;;;;;;;;;;;20.10;57.20;;;;;;6345761;28;19998;-71
2023/05/18 03:47:22;;;;;;;;;;;20.10;57.20;;;;;;6345390;28;19908;-71
2023/05/18 03:50:22;;;;;;;;;;;20.10;57.20;;;;;;6345861;28;19971;-71
2023/05/18 03:53:23;;;;;;;;;;;20.10;57.20;;;;;;6345774;28;19928;-71
2023/05/18 03:56:23;;;;;;;;;;;20.10;57.30;;;;;;6344974;28;19938;-71
2023/05/18 04:03:02;;;;;;;;;;;20.10;57.20;;;;;;6345562;28;19916;-71
2023/05/18 04:06:02;;;;;;;;;;;20.10;57.20;;;;;;6345236;28;19942;-71
2023/05/18 04:09:03;;;;;;;;;;;20.10;57.20;;;;;;6345512;28;20010;-71
2023/05/18 04:12:04;;;;;;;;;;;20.10;57.20;;;;;;6344605;28;19914;-71
2023/05/18 04:15:05;;;;;;;;;;;20.10;57.20;;;;;;6345219;28;19969;-71
2023/05/18 04:18:07;;;;;;;;;;;20.10;57.20;;;;;;6343642;28;20254;-71
2023/05/18 04:21:07;;;;;;;;;;;20.10;57.20;;;;;;6339583;28;19912;-71
2023/05/18 04:24:13;;;;;;;;;;;20.10;57.20;;;;;;6339374;28;19912;-71
2023/05/18 04:27:14;;;;;;;;;;;20.10;57.20;;;;;;6344005;28;19912;-71
2023/05/18 04:30:17;;;;;;;;;;;20.10;57.20;;;;;;6343774;28;19915;-71
2023/05/18 04:33:19;;;;;;;;;;;20.10;57.20;;;;;;6343955;28;19925;-71
2023/05/18 04:36:19;;;;;;;;;;;20.10;57.20;;;;;;6343305;28;19908;-72
2023/05/18 04:39:21;;;;;;;;;;;20.10;57.20;;;;;;6343604;28;19921;-71
2023/05/18 04:42:21;;;;;;;;;;;20.10;57.10;;;;;;6343919;28;19951;-71
2023/05/18 04:45:24;;;;;;;;;;;20.10;57.10;;;;;;6344397;28;19933;-71
2023/05/18 04:48:25;;;;;;;;;;;20.10;57.80;;;;;;6344770;28;20274;-71
2023/05/18 04:51:25;;;;;;;;;;;20.10;57.10;;;;;;6344556;28;19908;-71
2023/05/18 04:54:29;;;;;;;;;;;20.10;57.10;;;;;;6344160;28;20011;-71
2023/05/18 04:57:30;;;;;;;;;;;20.10;57.10;;;;;;6344354;28;19915;-71
2023/05/18 05:00:30;;;;;;;;;;;20.10;57.20;;;;;;6344218;28;19907;-71
2023/05/18 05:03:31;;;;;;;;;;;20.10;57.10;;;;;;6318589;28;19912;-71
2023/05/18 05:06:31;;;;;;;;;;;20.10;57.10;;;;;;6334192;28;20388;-71
2023/05/18 05:09:31;;;;;;;;;;;20.10;57.20;;;;;;6343273;28;19911;-71
2023/05/18 05:12:34;;;;;;;;;;;20.10;57.10;;;;;;6342979;28;19957;-71
2023/05/18 05:15:34;;;;;;;;;;;20.10;57.10;;;;;;6343478;28;19912;-71
2023/05/18 05:18:35;;;;;;;;;;;20.10;57.10;;;;;;6344038;28;19958;-71
2023/05/18 05:21:35;;;;;;;;;;;20.10;57.10;;;;;;6343986;28;19912;-71
2023/05/18 05:24:36;;;;;;;;;;;20.10;57.10;;;;;;6342923;28;19935;-71
2023/05/18 05:27:37;;;;;;;;;;;20.10;57.20;;;;;;6342284;28;19908;-71
2023/05/18 05:30:37;;;;;;;;;;;20.10;57.20;;;;;;6345711;28;19951;-71
2023/05/18 05:33:38;;;;;;;;;;;20.10;57.20;;;;;;6348638;28;19934;-71
2023/05/18 05:36:38;;;;;;;;;;;20.10;57.20;;;;;;6348671;28;19912;-71
2023/05/18 05:39:39;;;;;;;;;;;20.10;57.20;;;;;;6347621;28;19918;-71
2023/05/18 05:42:40;;;;;;;;;;;20.10;57.50;;;;;;6347977;28;20374;-71
2023/05/18 05:45:42;;;;;;;;;;;20.10;57.20;;;;;;6348302;28;20288;-71
2023/05/18 05:48:42;;;;;;;;;;;20.10;57.20;;;;;;6348881;28;19915;-71
2023/05/18 05:51:43;;;;;;;;;;;20.10;57.10;;;;;;6348499;28;19908;-71
2023/05/18 05:54:43;;;;;;;;;;;20.10;57.20;;;;;;6348444;28;19931;-71
2023/05/18 05:57:44;;;;;;;;;;;20.10;57.20;;;;;;6348411;28;20011;-71
2023/05/18 06:00:45;;;;;;;;;;;20.10;57.20;;;;;;6342584;28;19912;-71
2023/05/18 06:03:47;;;;;;;;;;;20.10;57.10;;;;;;6344883;28;20011;-71
2023/05/18 06:06:48;;;;;;;;;;;20.10;57.10;;;;;;6335187;28;19915;-71
2023/05/18 06:09:49;;;;;;;;;;;20.10;57.10;;;;;;6350569;28;20259;-71
2023/05/18 06:12:49;;;;;;;;;;;20.10;57.20;;;;;;6350100;28;20026;-71
2023/05/18 06:15:50;;;;;;;;;;;20.10;57.20;;;;;;6346946;28;19915;-71
2023/05/18 06:18:50;;;;;;;;;;;20.10;57.20;;;;;;6350086;28;20381;-71
2023/05/18 06:21:51;;;;;;;;;;;20.10;57.20;;;;;;6350134;28;20010;-71
2023/05/18 06:24:51;;;;;;;;;;;20.10;57.20;;;;;;6349532;28;19912;-71
2023/05/18 06:27:52;;;;;;;;;;;20.10;57.20;;;;;;6350042;28;19984;-72
2023/05/18 06:30:52;;;;;;;;;;;20.10;57.20;;;;;;6349943;28;19951;-71
2023/05/18 06:33:53;;;;;;;;;;;20.10;57.20;;;;;;6349613;28;19923;-71
2023/05/18 06:36:53;;;;;;;;;;;20.10;57.20;;;;;;6349806;28;20262;-71
2023/05/18 06:39:54;;;;;;;;;;;20.10;57.20;;;;;;6349898;28;19908;-71
2023/05/18 06:42:54;;;;;;;;;;;20.10;57.20;;;;;;6349262;28;20281;-71
2023/05/18 06:45:55;;;;;;;;;;;20.10;57.20;;;;;;6350160;28;19922;-71
2023/05/18 06:48:55;;;;;;;;;;;20.10;57.20;;;;;;6349452;28;20401;-71
2023/05/18 06:51:56;;;;;;;;;;;20.10;57.20;;;;;;6349312;28;19954;-71
2023/05/18 06:54:56;;;;;;;;;;;20.10;57.20;;;;;;6348671;28;19916;-71
2023/05/18 06:57:57;;;;;;;;;;;20.10;57.20;;;;;;6349282;28;20359;-71
2023/05/18 07:00:58;;;;;;;;;;;20.10;57.20;;;;;;6349211;28;19908;-71
2023/05/18 07:03:58;;;;;;;;;;;20.10;57.20;;;;;;6348974;28;20281;-72
2023/05/18 07:06:59;;;;;;;;;;;20.10;57.10;;;;;;6348851;28;19908;-71
2023/05/18 07:09:59;;;;;;;;;;;20.10;57.10;;;;;;6348880;28;19908;-71
2023/05/18 07:13:00;;;;;;;;;;;20.10;57.10;;;;;;6348644;28;20006;-71
2023/05/18 07:16:00;;;;;;;;;;;20.10;57.10;;;;;;6349101;28;20327;-71
2023/05/18 07:19:02;;;;;;;;;;;20.10;57.20;;;;;;6348189;28;20006;-71
2023/05/18 07:22:03;;;;;;;;;;;20.10;57.20;;;;;;6348796;28;19908;-71
2023/05/18 07:25:04;;;;;;;;;;;20.10;57.10;;;;;;6348026;28;19909;-71
2023/05/18 07:28:05;;;;;;;;;;;20.10;57.20;;;;;;6348293;28;19952;-71
2023/05/18 07:31:05;;;;;;;;;;;20.10;57.20;;;;;;6348363;28;19908;-71
2023/05/18 07:34:06;;;;;;;;;;;20.10;57.10;;;;;;6348509;28;20454;-71
2023/05/18 07:37:07;;;;;;;;;;;20.10;57.10;;;;;;6347855;28;19912;-71
2023/05/18 07:40:09;;;;;;;;;;;20.10;57.20;;;;;;6330196;28;19918;-71
2023/05/18 07:43:09;;;;;;;;;;;20.10;57.20;;;;;;6347775;28;19922;-71
2023/05/18 07:46:10;;;;;;;;;;;20.10;57.20;;;;;;6348223;28;19908;-71
2023/05/18 07:49:10;;;;;;;;;;;20.10;57.10;;;;;;6347910;28;19908;-71
2023/05/18 07:52:11;;;;;;;;;;;20.10;57.10;;;;;;6347823;28;19922;-71
2023/05/18 07:55:11;;;;;;;;;;;20.10;57.20;;;;;;6345935;28;19922;-71
2023/05/18 07:58:12;;;;;;;;;;;20.10;57.20;;;;;;6346744;28;19924;-71
2023/05/18 08:01:12;;;;;;;;;;;20.10;57.20;;;;;;6347051;28;19994;-71
2023/05/18 08:04:13;;;;;;;;;;;20.10;57.10;;;;;;6346482;28;19908;-71
2023/05/18 08:07:13;;;;;;;;;;;20.10;57.20;;;;;;6346941;28;19914;-71
2023/05/18 08:10:14;;;;;;;;;;;20.10;57.20;;;;;;6347401;28;20281;-72
2023/05/18 08:13:15;;;;;;;;;;;20.10;57.20;;;;;;6347307;28;19947;-72
2023/05/18 08:16:15;;;;;;;;;;;20.10;57.20;;;;;;6347448;28;20007;-72
2023/05/18 08:19:16;;;;;;;;;;;20.10;57.10;;;;;;6347016;28;19915;-72
2023/05/18 08:22:16;;;;;;;;;;;20.10;57.10;;;;;;6347634;28;20326;-71
2023/05/18 08:25:17;;;;;;;;;;;20.10;57.20;;;;;;6346594;28;20011;-71
2023/05/18 08:28:17;;;;;;;;;;;20.10;57.20;;;;;;6347128;28;19930;-71
2023/05/18 08:31:17;;;;;;;;;;;20.10;57.20;;;;;;6347159;28;19934;-72
2023/05/18 08:34:18;;;;;;;;;;;20.10;57.20;;;;;;6346604;28;19969;-72
2023/05/18 08:37:20;;;;;;;;;;;20.10;57.20;;;;;;6346892;28;19934;-72
2023/05/18 08:40:20;;;;;;;;;;;20.10;57.20;;;;;;6346774;28;19907;-71
2023/05/18 08:43:22;;;;;;;;;;;20.10;57.20;;;;;;6346937;28;20282;-71
2023/05/18 08:46:28;;;;;;;;;;;20.10;57.20;;;;;;6342238;28;19958;-72
2023/05/18 08:49:29;;;;;;;;;;;20.10;57.20;;;;;;6346565;28;19918;-71
2023/05/18 08:52:35;;;;;;;;;;;20.00;57.10;;;;;;6346337;28;19927;-71
2023/05/18 08:55:36;;;;;;;;;;;20.10;57.10;;;;;;6333300;28;20018;-72
2023/05/18 08:58:41;;;;;;;;;;;20.10;57.20;;;;;;6336935;28;19916;-72
2023/05/18 09:01:42;;;;;;;;;;;20.10;57.20;;;;;;6346117;28;19914;-72
2023/05/18 09:04:43;;;;;;;;;;;20.10;57.20;;;;;;6345837;28;19908;-72
2023/05/18 09:07:44;;;;;;;;;;;20.10;57.10;;;;;;6346396;28;19953;-72
2023/05/18 09:10:46;;;;;;;;;;;20.10;57.20;;;;;;6344506;28;19911;-71
2023/05/18 09:13:47;;;;;;;;;;;20.10;57.20;;;;;;6338650;28;19939;-72
2023/05/18 09:16:48;;;;;;;;;;;20.10;57.20;;;;;;6336301;28;19912;-72
2023/05/18 09:19:48;;;;;;;;;;;20.10;57.20;;;;;;6327585;28;19957;-72
2023/05/18 09:22:50;;;;;;;;;;;20.10;57.20;;;;;;6345611;28;20348;-72
2023/05/18 09:25:51;;;;;;;;;;;20.10;57.20;;;;;;6345846;28;19915;-71
2023/05/18 09:28:52;;;;;;;;;;;20.10;57.20;;;;;;6326758;28;19908;-71
2023/05/18 09:31:53;;;;;;;;;;;20.10;57.20;;;;;;6309800;28;20312;-72
2023/05/18 09:34:54;;;;;;;;;;;20.10;57.20;;;;;;6329767;28;19972;-72
2023/05/18 09:37:54;;;;;;;;;;;20.10;57.20;;;;;;6323841;28;19916;-71
2023/05/18 09:40:55;;;;;;;;;;;20.10;57.20;;;;;;6331580;28;19958;-72
2023/05/18 09:43:55;;;;;;;;;;;20.10;57.20;;;;;;6335900;28;19931;-71
2023/05/18 09:46:56;;;;;;;;;;;20.10;57.20;;;;;;6344950;28;20294;-71
2023/05/18 09:49:56;;;;;;;;;;;20.10;57.10;;;;;;6339601;28;19912;-72
2023/05/18 09:52:58;;;;;;;;;;;20.10;57.10;;;;;;6326229;28;19919;-71
2023/05/18 09:56:02;;;;;;;;;;;20.00;57.00;;;;;;6344999;28;19926;-71
2023/05/18 09:59:09;;;;;;;;;;;20.00;57.10;;;;;;6344561;28;19914;-71
2023/05/18 10:02:11;;;;;;;;;;;20.10;57.20;;;;;;6344741;28;20002;-72
2023/05/18 10:05:22;;;;;;;;;;;20.10;57.10;;;;;;6344413;28;19918;-72
2023/05/18 10:08:23;;;;;;;;;;;20.10;57.10;;;;;;6344759;28;19908;-71
2023/05/18 10:11:23;;;;;;;;;;;20.10;57.10;;;;;;6344738;28;19919;-72
2023/05/18 10:14:26;;;;;;;;;;;20.10;57.10;;;;;;6344250;28;20390;-71
2023/05/18 10:17:27;;;;;;;;;;;20.10;57.10;;;;;;6347046;28;19914;-72
2023/05/18 10:20:27;;;;;;;;;;;20.10;57.10;;;;;;6348857;28;20360;-73
2023/05/18 10:23:32;;;;;;;;;;;20.20;57.00;;;;;;6343488;28;19925;-73
2023/05/18 10:26:35;;;;;;;;;;;20.20;56.90;;;;;;6348982;28;19907;-73
2023/05/18 10:29:36;;;;;;;;;;;20.10;56.90;;;;;;6348977;28;20332;-73
2023/05/18 10:32:37;;;;;;;;;;;20.10;57.00;;;;;;6333294;28;19988;-73
2023/05/18 10:35:38;;;;;;;;;;;20.10;57.00;;;;;;6343474;28;19951;-72
2023/05/18 10:38:39;;;;;;;;;;;20.10;57.10;;;;;;6348582;28;20421;-73
2023/05/18 10:41:40;;;;;;;;;;;20.10;57.10;;;;;;6347993;28;19915;-73
2023/05/18 10:44:41;;;;;;;;;;;20.10;57.10;;;;;;6348299;28;20415;-74
2023/05/18 10:47:42;;;;;;;;;;;20.10;57.10;;;;;;6348906;28;19959;-73
2023/05/18 10:50:43;;;;;;;;;;;20.10;57.10;;;;;;6337841;28;19933;-73
2023/05/18 10:53:46;;;;;;;;;;;20.10;57.10;;;;;;6321265;28;20375;-73
2023/05/18 10:56:49;;;;;;;;;;;20.10;57.10;;;;;;6322901;28;20346;-73
2023/05/18 10:59:49;;;;;;;;;;;20.10;57.10;;;;;;6322407;28;20380;-73
2023/05/18 11:02:50;;;;;;;;;;;20.10;57.80;;;;;;6323055;28;19943;-72
2023/05/18 11:06:10;;;;;;;;;;;20.10;57.10;;;;;;6318887;28;19908;-73
2023/05/18 11:09:21;;;;;;;;;;;20.10;57.10;;;;;;6322720;28;19912;-71
2023/05/18 11:12:22;;;;;;;;;;;20.10;57.20;;;;;;6322647;28;19913;-72
2023/05/18 11:15:42;;;;;;;;;;;20.10;57.20;;;;;;6322441;28;19920;-72
2023/05/18 11:18:48;;;;;;;;;;;20.10;57.10;;;;;;6297353;28;20231;-72
2023/05/18 11:21:50;;;;;;;;;;;20.10;57.10;;;;;;6320947;28;20503;-72
2023/05/18 11:24:50;;;;;;;;;;;20.10;57.10;;;;;;6321920;28;19908;-72
2023/05/18 11:27:52;;;;;;;;;;;20.10;57.00;;;;;;6322051;28;20377;-72
2023/05/18 11:30:52;;;;;;;;;;;20.10;57.10;;;;;;6321994;28;19999;-73
2023/05/18 11:33:53;;;;;;;;;;;20.10;57.10;;;;;;6321724;28;19916;-72
2023/05/18 11:36:54;;;;;;;;;;;20.10;57.10;;;;;;6321305;28;20286;-72
2023/05/18 11:39:55;;;;;;;;;;;20.10;57.10;;;;;;6321981;28;19912;-72
2023/05/18 11:42:59;;;;;;;;;;;20.10;57.80;;;;;;6321361;28;20278;-73
2023/05/18 11:45:59;;;;;;;;;;;20.10;57.10;;;;;;6321444;28;19959;-70
2023/05/18 11:49:03;;;;;;;;;;;20.10;57.10;;;;;;6321723;28;19909;-70
2023/05/18 11:52:20;;;;;;;;;;;20.10;57.10;;;;;;6320527;28;19919;-72
2023/05/18 11:55:20;;;;;;;;;;;20.10;57.20;;;;;;6346547;28;20339;-72
2023/05/18 11:58:24;;;;;;;;;;;20.10;57.10;;;;;;6342242;28;19960;-72
2023/05/18 12:01:25;;;;;;;;;;;20.10;57.10;;;;;;6336906;28;19908;-72
2023/05/18 12:04:26;;;;;;;;;;;20.10;57.20;;;;;;6327625;27;19912;-72
2023/05/18 12:07:33;;;;;;;;;;;20.10;57.20;;;;;;6336527;28;19915;-72
2023/05/18 12:10:35;;;;;;;;;;;20.10;57.20;;;;;;6346150;28;19912;-72
2023/05/18 12:13:36;;;;;;;;;;;20.10;57.20;;;;;;6345933;28;20003;-73
2023/05/18 12:16:37;;;;;;;;;;;20.10;57.20;;;;;;6346212;28;20370;-72
2023/05/18 12:19:46;;;;;;;;;;;20.10;57.20;;;;;;6346550;28;19918;-72
2023/05/18 12:22:52;;;;;;;;;;;20.10;57.20;;;;;;6345561;28;19912;-72
2023/05/18 12:25:54;;;;;;;;;;;20.10;57.20;;;;;;6362376;27;20653;-72
2023/05/18 12:28:55;;;;;;;;;;;20.10;57.20;;;;;;6346168;28;20015;-73
2023/05/18 12:31:55;;;;;;;;;;;20.10;57.20;;;;;;6345379;28;19908;-73
2023/05/18 12:34:56;;;;;;;;;;;20.10;57.20;;;;;;6345797;28;19932;-72
2023/05/18 12:37:59;;;;;;;;;;;20.10;57.20;;;;;;6345689;28;19915;-72
2023/05/18 12:40:59;;;;;;;;;;;20.00;57.10;;;;;;6344944;28;19922;-72
2023/05/18 12:44:00;;;;;;;;;;;20.10;57.20;;;;;;6345215;28;20558;-72
2023/05/18 12:47:01;;;;;;;;;;;20.10;57.20;;;;;;6345504;28;19915;-72
2023/05/18 12:50:02;;;;;;;;;;;20.10;57.30;;;;;;6339827;28;19955;-72
2023/05/18 12:53:02;;;;;;;;;;;20.10;57.30;;;;;;6339577;28;20353;-72
2023/05/18 12:56:08;;;;;;;;;;;20.10;57.20;;;;;;6345233;28;19912;-72
2023/05/18 12:59:08;;;;;;;;;;;20.10;57.20;;;;;;6345681;28;19911;-72
2023/05/18 13:02:23;;;;;;;;;;;20.10;57.30;;;;;;6345077;28;19915;-72
2023/05/18 13:05:24;;;;;;;;;;;20.00;57.20;;;;;;6345466;28;20310;-72
2023/05/18 13:08:24;;;;;;;;;;;20.00;57.20;;;;;;6345045;28;19962;-72
2023/05/18 13:11:26;;;;;;;;;;;20.10;57.30;;;;;;6344868;28;19907;-72
2023/05/18 13:14:29;;;;;;;;;;;20.10;57.30;;;;;;6334725;28;19916;-72
2023/05/18 13:17:29;;;;;;;;;;;20.10;57.30;;;;;;6345263;28;19934;-72
2023/05/18 13:20:34;;;;;;;;;;;20.00;57.20;;;;;;6345429;28;19908;-73
2023/05/18 13:23:35;;;;;;;;;;;20.10;57.30;;;;;;6340294;28;19919;-73
2023/05/18 13:26:35;;;;;;;;;;;20.10;57.30;;;;;;6345091;28;19908;-72
2023/05/18 13:29:36;;;;;;;;;;;20.00;57.20;;;;;;6345493;28;20002;-73
2023/05/18 13:32:36;;;;;;;;;;;20.00;57.50;;;;;;6344285;28;20285;-72
2023/05/18 13:35:40;;;;;;;;;;;20.10;57.30;;;;;;6345058;28;19915;-72
2023/05/18 13:38:41;;;;;;;;;;;20.10;57.30;;;;;;6344567;28;19914;-72
2023/05/18 13:41:41;;;;;;;;;;;20.00;57.20;;;;;;6340090;28;19943;-72
2023/05/18 13:44:42;;;;;;;;;;;20.00;57.20;;;;;;6344809;28;19915;-72
2023/05/18 13:47:46;;;;;;;;;;;20.10;57.30;;;;;;6344894;28;20466;-72
2023/05/18 13:50:46;;;;;;;;;;;20.10;57.30;;;;;;6332836;28;19978;-72
2023/05/18 13:53:47;;;;;;;;;;;20.00;57.20;;;;;;6340186;28;19920;-72
2023/05/18 13:56:47;;;;;;;;;;;20.10;57.30;;;;;;6349724;28;19911;-70
2023/05/18 13:59:48;;;;;;;;;;;20.10;57.30;;;;;;6349521;28;19912;-69
2023/05/18 14:02:49;;;;;;;;;;;20.10;57.30;;;;;;6349014;28;19912;-69
2023/05/18 14:05:49;;;;;;;;;;;20.00;57.30;;;;;;6349434;28;19951;-72
2023/05/18 14:08:50;;;;;;;;;;;20.10;57.30;;;;;;6349257;28;19943;-72
2023/05/18 14:11:50;;;;;;;;;;;20.00;57.30;;;;;;6349169;28;19994;-73
2023/05/18 14:14:51;;;;;;;;;;;20.10;57.30;;;;;;6349229;28;19938;-72
2023/05/18 14:17:51;;;;;;;;;;;20.00;57.30;;;;;;6348975;28;19908;-72
2023/05/18 14:20:51;;;;;;;;;;;20.10;57.30;;;;;;6349536;28;19908;-72
2023/05/18 14:23:52;;;;;;;;;;;20.00;57.30;;;;;;6348217;28;19947;-72
2023/05/18 14:26:52;;;;;;;;;;;20.00;57.30;;;;;;6349163;28;20362;-72
2023/05/18 14:29:53;;;;;;;;;;;20.00;57.30;;;;;;6348936;28;19912;-72
2023/05/18 14:32:53;;;;;;;;;;;20.00;57.30;;;;;;6347726;28;19966;-72
2023/05/18 14:35:54;;;;;;;;;;;20.00;57.30;;;;;;6348865;28;19912;-72
2023/05/18 14:38:55;;;;;;;;;;;20.00;57.30;;;;;;6348599;28;19908;-72
2023/05/18 14:41:55;;;;;;;;;;;20.00;57.30;;;;;;6348331;28;19908;-72
2023/05/18 14:44:56;;;;;;;;;;;20.00;57.30;;;;;;6348038;28;19908;-72
2023/05/18 14:47:56;;;;;;;;;;;20.00;57.30;;;;;;6348068;28;19977;-72
2023/05/18 14:50:57;;;;;;;;;;;20.00;57.30;;;;;;6334841;28;19912;-72
2023/05/18 14:53:57;;;;;;;;;;;20.00;57.60;;;;;;6333036;28;20342;-73
2023/05/18 14:56:58;;;;;;;;;;;20.00;57.30;;;;;;6348573;28;19942;-72
2023/05/18 14:59:59;;;;;;;;;;;20.00;57.30;;;;;;6347546;28;20309;-72
2023/05/18 15:03:00;;;;;;;;;;;20.00;57.30;;;;;;6347046;28;20369;-72
2023/05/18 15:06:01;;;;;;;;;;;20.00;57.30;;;;;;6347576;28;19915;-72
2023/05/18 15:09:01;;;;;;;;;;;20.00;57.30;;;;;;6348033;28;19912;-72
2023/05/18 15:12:02;;;;;;;;;;;20.00;57.30;;;;;;6347616;28;19962;-73
2023/05/18 15:15:02;;;;;;;;;;;20.00;57.30;;;;;;6347437;28;19923;-72
2023/05/18 15:18:03;;;;;;;;;;;20.00;57.30;;;;;;6347221;28;19908;-72
2023/05/18 15:21:04;;;;;;;;;;;20.00;57.30;;;;;;6347920;28;20565;-72
2023/05/18 15:24:05;;;;;;;;;;;20.00;57.30;;;;;;6345680;28;20267;-72
2023/05/18 15:27:05;;;;;;;;;;;20.00;57.30;;;;;;6347766;28;19954;-72
2023/05/18 15:30:10;;;;;;;;;;;20.00;57.30;;;;;;6346573;28;20023;-72
2023/05/18 15:33:10;;;;;;;;;;;20.00;57.30;;;;;;6339117;28;20011;-73
2023/05/18 15:36:11;;;;;;;;;;;20.00;57.30;;;;;;6343679;28;19908;-72
2023/05/18 15:39:12;;;;;;;;;;;20.00;57.30;;;;;;6346391;28;19953;-72
2023/05/18 15:42:12;;;;;;;;;;;20.00;57.30;;;;;;6346026;28;20316;-72
2023/05/18 15:45:13;;;;;;;;;;;20.00;57.30;;;;;;6346197;28;19908;-72
2023/05/18 15:48:13;;;;;;;;;;;20.00;57.30;;;;;;6346948;28;19951;-72
2023/05/18 15:51:14;;;;;;;;;;;20.10;57.70;;;;;;6338891;28;20043;-72
2023/05/18 15:54:14;;;;;;;;;;;20.10;57.60;;;;;;6345588;28;19920;-72
2023/05/18 15:57:15;;;;;;;;;;;20.10;57.40;;;;;;6346763;28;19912;-72
2023/05/18 16:00:16;;;;;;;;;;;20.10;57.40;;;;;;6346084;28;19908;-72
2023/05/18 16:03:17;;;;;;;;;;;20.10;57.40;;;;;;6346442;28;19907;-72
2023/05/18 16:06:18;;;;;;;;;;;20.10;57.40;;;;;;6346424;28;19966;-72
2023/05/18 16:09:18;;;;;;;;;;;20.10;57.40;;;;;;6346392;28;19907;-72
2023/05/18 16:12:19;;;;;;;;;;;20.00;57.30;;;;;;6346246;28;19926;-72
2023/05/18 16:15:23;;;;;;;;;;;20.10;57.40;;;;;;6328251;28;20316;-72
2023/05/18 16:18:23;;;;;;;;;;;20.00;57.30;;;;;;6344239;28;19907;-72
2023/05/18 16:21:24;;;;;;;;;;;20.10;57.40;;;;;;6343089;28;19935;-72
2023/05/18 16:24:24;;;;;;;;;;;20.10;57.30;;;;;;6344159;28;19946;-72
2023/05/18 16:27:25;;;;;;;;;;;20.00;57.30;;;;;;6344527;27;19907;-72
2023/05/18 16:30:25;;;;;;;;;;;20.00;57.30;;;;;;6344654;28;20322;-72
2023/05/18 16:33:26;;;;;;;;;;;20.00;57.30;;;;;;6325108;28;20361;-72
2023/05/18 16:36:26;;;;;;;;;;;20.00;57.30;;;;;;6343693;28;19915;-72
2023/05/18 16:39:26;;;;;;;;;;;20.00;57.30;;;;;;6343864;28;19936;-72
2023/05/18 16:42:27;;;;;;;;;;;20.00;57.30;;;;;;6344168;28;19914;-71
2023/05/18 16:45:27;;;;;;;;;;;20.00;57.30;;;;;;6344522;28;19907;-71
2023/05/18 16:48:28;;;;;;;;;;;20.00;57.30;;;;;;6344257;28;19915;-72
2023/05/18 16:51:28;;;;;;;;;;;20.00;57.30;;;;;;6344905;28;19919;-72
2023/05/18 16:54:29;;;;;;;;;;;20.00;57.30;;;;;;6344037;28;19930;-72
2023/05/18 16:57:32;;;;;;;;;;;20.00;57.30;;;;;;6343643;28;19907;-72
2023/05/18 17:00:33;;;;;;;;;;;20.00;57.30;;;;;;6342407;28;19915;-72
2023/05/18 17:03:33;;;;;;;;;;;20.00;57.40;;;;;;6325165;28;20003;-72
2023/05/18 17:06:34;;;;;;;;;;;20.00;57.40;;;;;;6330517;28;19915;-72
2023/05/18 17:09:35;;;;;;;;;;;20.00;57.40;;;;;;6343802;28;19907;-72
2023/05/18 17:12:37;;;;;;;;;;;20.00;57.30;;;;;;6343493;28;19912;-72
2023/05/18 17:15:37;;;;;;;;;;;20.00;57.30;;;;;;6342917;28;19916;-72
2023/05/18 17:18:38;;;;;;;;;;;20.00;57.40;;;;;;6343762;28;19908;-72
2023/05/18 17:21:40;;;;;;;;;;;20.00;57.40;;;;;;6343585;28;19912;-72
2023/05/18 17:24:41;;;;;;;;;;;20.00;57.30;;;;;;6343764;28;19908;-72
2023/05/18 17:27:41;;;;;;;;;;;20.00;57.30;;;;;;6348453;28;19915;-72
2023/05/18 17:30:42;;;;;;;;;;;20.00;57.40;;;;;;6348950;28;19914;-72
2023/05/18 17:33:45;;;;;;;;;;;20.00;57.40;;;;;;6348766;28;19916;-72
2023/05/18 17:36:46;;;;;;;;;;;20.00;57.40;;;;;;6349316;28;19908;-72